Time;durP1;ratioP1;P1;durP2;ratioP2;P2;SDS_P1;SDS_P2;PMS_P1;PMS_P2;Temp;Humidity;BMP_temperature;BMP_pressure;BME280_temperature;BME280_humidity;BME280_pressure;Samples;Min_cycle;Max_cycle;Signal;HPM_P1;HPM_P2
2023/09/08 00:01:19;;;;;;;5.72;3.90;;;;;;;22.42;55.81;101074.50;4990033;28;20485;-75
2023/09/08 00:03:45;;;;;;;9.82;3.92;;;;;;;22.44;55.66;101072.44;4990271;28;20101;-77
2023/09/08 00:06:10;;;;;;;4.85;3.92;;;;;;;22.42;55.49;101070.91;4990370;28;20113;-76
2023/09/08 00:08:35;;;;;;;8.25;4.05;;;;;;;22.34;55.17;101071.88;4990179;28;20084;-77
2023/09/08 00:11:01;;;;;;;7.70;3.95;;;;;;;22.17;55.16;101046.53;4990367;28;20506;-77
2023/09/08 00:13:26;;;;;;;6.22;3.78;;;;;;;22.27;55.03;101065.44;4989724;28;20026;-75
2023/09/08 00:15:52;;;;;;;6.35;4.15;;;;;;;22.29;55.06;101057.03;4989802;28;20034;-75
2023/09/08 00:18:17;;;;;;;5.68;3.50;;;;;;;22.12;54.92;101039.94;4989740;28;20045;-76
2023/09/08 00:20:42;;;;;;;5.47;3.75;;;;;;;22.14;55.22;101066.09;4972629;28;20033;-75
2023/09/08 00:23:08;;;;;;;14.15;3.72;;;;;;;22.07;55.13;101058.84;4989326;28;20030;-75
2023/09/08 00:25:34;;;;;;;9.18;3.75;;;;;;;21.97;54.99;101041.81;4989244;28;20639;-75
2023/09/08 00:28:00;;;;;;;7.20;3.60;;;;;;;22.06;55.04;101062.63;4972164;28;20109;-76
2023/09/08 00:30:25;;;;;;;9.02;4.10;;;;;;;22.03;54.98;101065.72;4989333;28;20026;-76
2023/09/08 00:32:50;;;;;;;10.05;4.00;;;;;;;22.04;54.87;101061.97;4989710;28;20022;-75
2023/09/08 00:35:16;;;;;;;5.25;3.35;;;;;;;21.99;54.86;101062.50;4989837;28;20375;-77
2023/09/08 00:37:41;;;;;;;8.25;4.35;;;;;;;21.90;54.71;101041.72;4989244;28;20761;-77
2023/09/08 00:40:10;;;;;;;4.95;3.60;;;;;;;21.91;54.90;101053.53;4989581;28;20038;-77
2023/09/08 00:42:35;;;;;;;6.82;3.80;;;;;;;21.92;54.68;101058.84;4989877;28;20413;-77
2023/09/08 00:45:01;;;;;;;9.73;4.78;;;;;;;21.91;54.71;101064.50;4989142;28;20026;-76
2023/09/08 00:47:26;;;;;;;5.78;3.60;;;;;;;21.91;54.53;101061.75;4989403;28;20065;-76
2023/09/08 00:49:52;;;;;;;5.30;3.88;;;;;;;21.85;54.65;101062.47;4989796;28;20038;-77
2023/09/08 00:52:18;;;;;;;7.15;4.07;;;;;;;21.86;54.58;101061.44;4989428;28;20114;-77
2023/09/08 00:54:43;;;;;;;9.45;3.50;;;;;;;21.84;54.55;101052.53;4989677;28;20028;-76
2023/09/08 00:57:09;;;;;;;13.00;4.38;;;;;;;21.82;54.32;101065.59;4989148;28;20026;-77
2023/09/08 00:59:36;;;;;;;4.43;3.50;;;;;;;21.81;54.20;101058.41;4989232;28;20053;-77
2023/09/08 01:02:05;;;;;;;11.52;3.97;;;;;;;21.78;54.20;101054.16;4938762;28;20046;-77
2023/09/08 01:04:31;;;;;;;12.57;3.75;;;;;;;21.73;54.07;101044.81;4988828;28;20038;-77
2023/09/08 01:06:58;;;;;;;6.55;3.70;;;;;;;21.88;53.90;101062.09;4989335;28;20030;-78
2023/09/08 01:09:24;;;;;;;4.28;3.42;;;;;;;21.88;53.66;101059.38;4989266;28;20101;-75
2023/09/08 01:11:50;;;;;;;5.28;3.33;;;;;;;21.86;53.57;101061.44;4988911;28;20022;-76
2023/09/08 01:14:19;;;;;;;12.18;3.65;;;;;;;21.83;53.44;101061.81;4989034;28;20125;-78
2023/09/08 01:16:44;;;;;;;5.93;4.13;;;;;;;21.85;53.48;101054.25;4988849;28;20391;-75
2023/09/08 01:19:13;;;;;;;11.85;3.35;;;;;;;21.86;53.25;101053.22;4988854;28;20101;-76
2023/09/08 01:22:00;;;;;;;7.78;3.65;;;;;;;21.88;53.28;101053.88;4988874;28;20023;-76
2023/09/08 01:24:51;;;;;;;12.25;3.85;;;;;;;21.91;53.05;101062.63;4989165;28;20459;-76
2023/09/08 01:27:18;;;;;;;11.52;3.38;;;;;;;21.91;52.90;101053.53;4947640;28;20054;-76
2023/09/08 01:29:45;;;;;;;8.40;3.42;;;;;;;21.91;52.73;101057.13;4931414;29;20493;-75
2023/09/08 01:32:11;;;;;;;11.98;3.60;;;;;;;21.87;52.85;101052.16;4947812;28;20036;-77
2023/09/08 01:34:39;;;;;;;6.05;3.50;;;;;;;21.87;52.84;101052.16;4947964;28;20031;-77
2023/09/08 01:37:06;;;;;;;7.00;3.35;;;;;;;21.78;52.55;101042.34;4947379;29;20943;-76
2023/09/08 01:39:31;;;;;;;5.88;3.35;;;;;;;21.92;52.58;101049.78;4948012;28;20547;-77
2023/09/08 01:41:57;;;;;;;9.60;4.10;;;;;;;21.88;52.71;101041.06;4947192;28;20051;-77
2023/09/08 01:44:22;;;;;;;7.35;4.03;;;;;;;21.95;52.39;101055.72;4948113;28;20028;-77
2023/09/08 01:46:48;;;;;;;10.82;3.60;;;;;;;22.00;52.22;101047.78;4947044;28;20055;-77
2023/09/08 01:49:13;;;;;;;8.35;3.63;;;;;;;22.03;52.02;101047.41;4947691;28;20035;-76
2023/09/08 01:51:39;;;;;;;10.98;3.25;;;;;;;21.91;52.06;101028.88;4947965;28;20039;-77
2023/09/08 01:54:04;;;;;;;9.50;3.67;;;;;;;21.99;52.06;101045.22;4947416;28;20831;-77
2023/09/08 01:56:29;;;;;;;8.50;3.72;;;;;;;22.01;51.98;101043.16;4947817;28;20070;-75
2023/09/08 01:58:55;;;;;;;8.38;3.40;;;;;;;22.05;51.83;101047.19;4979251;28;20490;-77
2023/09/08 02:01:20;;;;;;;5.13;3.60;;;;;;;22.04;51.95;101049.13;4954008;28;20046;-77
2023/09/08 02:03:46;;;;;;;11.77;3.95;;;;;;;21.84;52.04;101019.69;4990398;28;20053;-77
2023/09/08 02:06:31;;;;;;;9.85;3.38;;;;;;;22.05;52.05;101055.41;4992991;28;20030;-77
2023/09/08 02:08:56;;;;;;;11.50;4.05;;;;;;;22.10;51.70;101050.25;4931196;29;20032;-77
2023/09/08 02:11:22;;;;;;;18.20;3.60;;;;;;;22.12;51.53;101045.41;4931894;29;20102;-77
2023/09/08 02:13:47;;;;;;;10.88;3.75;;;;;;;22.17;51.48;101037.47;4931396;29;20046;-77
2023/09/08 02:16:16;;;;;;;12.02;4.40;;;;;;;22.19;51.45;101041.75;4931697;29;20504;-77
2023/09/08 02:18:42;;;;;;;13.77;3.85;;;;;;;22.05;51.62;101028.03;4931598;29;20181;-77
2023/09/08 02:21:08;;;;;;;9.00;3.90;;;;;;;22.03;51.61;101024.63;4935735;29;20036;-77
2023/09/08 02:23:33;;;;;;;7.30;3.33;;;;;;;22.15;51.70;101045.03;4936442;29;20054;-76
2023/09/08 02:25:59;;;;;;;11.68;3.15;;;;;;;22.15;51.57;101034.09;4958991;29;20050;-76
2023/09/08 02:28:24;;;;;;;8.15;2.80;;;;;;;22.15;51.73;101042.31;4958574;29;20043;-76
2023/09/08 02:30:50;;;;;;;7.55;2.90;;;;;;;22.15;51.64;101036.81;4953724;29;20176;-76
2023/09/08 02:33:15;;;;;;;7.07;3.90;;;;;;;22.13;51.76;101037.03;4931993;29;20484;-76
2023/09/08 02:35:40;;;;;;;15.07;3.42;;;;;;;22.12;51.87;101034.47;4932154;29;20603;-77
2023/09/08 02:38:06;;;;;;;15.35;3.95;;;;;;;22.08;51.69;101024.91;4932035;29;20563;-76
2023/09/08 02:40:34;;;;;;;5.35;3.60;;;;;;;21.91;51.88;100999.63;4977737;28;20124;-76
2023/09/08 02:43:03;;;;;;;6.20;3.53;;;;;;;21.97;51.82;100998.84;4993755;28;20026;-76
2023/09/08 02:45:28;;;;;;;14.20;3.38;;;;;;;21.95;52.04;101000.09;4992753;28;20054;-77
2023/09/08 02:47:54;;;;;;;11.63;3.80;;;;;;;22.08;52.10;101028.50;4991905;28;20038;-76
2023/09/08 02:50:20;;;;;;;7.00;3.13;;;;;;;22.12;51.94;101028.97;4991726;28;20537;-76
2023/09/08 02:52:46;;;;;;;8.05;3.67;;;;;;;22.05;51.66;101017.06;4991712;28;20038;-76
2023/09/08 02:55:11;;;;;;;6.18;3.40;;;;;;;21.98;52.11;101014.25;4991687;28;20483;-76
2023/09/08 02:57:38;;;;;;;12.45;4.38;;;;;;;21.99;52.27;101017.81;4991556;28;20034;-76
2023/09/08 03:00:04;;;;;;;11.52;3.60;;;;;;;22.04;52.11;101021.72;4991718;28;20474;-76
2023/09/08 03:02:30;;;;;;;5.68;3.30;;;;;;;21.93;52.01;101004.88;4972615;28;20414;-76
2023/09/08 03:04:56;;;;;;;8.32;3.20;;;;;;;22.01;52.19;101032.22;4991691;28;20023;-76
2023/09/08 03:07:22;;;;;;;10.77;4.10;;;;;;;22.00;52.23;101030.50;4991359;28;20186;-77
2023/09/08 03:09:47;;;;;;;8.98;3.58;;;;;;;21.98;52.27;101027.09;4991376;28;20046;-76
2023/09/08 03:12:13;;;;;;;9.35;3.55;;;;;;;21.96;52.26;101018.19;4990982;28;20030;-76
2023/09/08 03:14:38;;;;;;;9.05;3.42;;;;;;;22.01;52.15;101015.78;4991170;28;20023;-76
2023/09/08 03:17:03;;;;;;;10.10;3.50;;;;;;;21.98;52.13;101016.16;4991096;28;20030;-76
2023/09/08 03:19:29;;;;;;;7.90;4.75;;;;;;;21.96;52.10;101023.69;4991031;28;20101;-76
2023/09/08 03:21:54;;;;;;;16.30;5.70;;;;;;;21.88;52.17;101000.00;4991329;28;20526;-76
2023/09/08 03:24:20;;;;;;;15.77;6.53;;;;;;;21.99;52.08;101015.09;4990884;28;20030;-76
2023/09/08 03:26:45;;;;;;;21.27;4.65;;;;;;;21.90;52.12;100999.78;4990971;28;20037;-76
2023/09/08 03:29:10;;;;;;;11.13;3.67;;;;;;;21.88;52.17;101004.59;4991042;28;20027;-75
2023/09/08 03:31:36;;;;;;;10.95;4.47;;;;;;;21.96;52.33;101021.81;4990807;28;20050;-77
2023/09/08 03:34:02;;;;;;;10.73;3.85;;;;;;;21.93;52.42;101024.06;4990832;28;20031;-77
2023/09/08 03:36:27;;;;;;;13.27;4.10;;;;;;;21.92;52.58;101030.59;4990478;28;20064;-77
2023/09/08 03:38:53;;;;;;;17.35;4.88;;;;;;;21.97;52.59;101028.13;4990918;28;20025;-75
2023/09/08 03:41:18;;;;;;;9.32;3.65;;;;;;;21.80;52.68;100996.47;4989998;28;20026;-76
2023/09/08 03:43:43;;;;;;;12.80;3.45;;;;;;;21.97;52.55;101026.25;4990660;28;20034;-76
2023/09/08 03:46:09;;;;;;;10.98;3.85;;;;;;;21.95;52.54;101022.84;4990649;28;20058;-76
2023/09/08 03:48:34;;;;;;;13.13;3.88;;;;;;;21.97;52.62;101030.88;4990620;28;20033;-75
2023/09/08 03:51:00;;;;;;;12.95;4.00;;;;;;;21.93;52.91;101018.59;4990472;28;20052;-78
2023/09/08 03:53:25;;;;;;;13.23;4.57;;;;;;;21.88;52.85;101024.66;4990477;28;20034;-75
2023/09/08 03:55:51;;;;;;;8.60;3.72;;;;;;;21.86;53.07;101028.59;4990171;28;20030;-77
2023/09/08 03:58:16;;;;;;;10.23;3.72;;;;;;;21.87;53.13;101024.78;4990300;28;20030;-76
2023/09/08 04:00:42;;;;;;;25.50;7.13;;;;;;;21.67;53.23;101008.06;4990415;28;20410;-77
2023/09/08 04:03:09;;;;;;;14.27;4.32;;;;;;;21.79;53.31;101027.63;4990224;28;20058;-75
2023/09/08 04:05:34;;;;;;;14.15;4.07;;;;;;;21.78;53.30;101031.38;4990365;28;20034;-76
2023/09/08 04:08:01;;;;;;;12.40;3.92;;;;;;;21.82;53.49;101038.19;4990049;28;20108;-77
2023/09/08 04:10:26;;;;;;;6.60;4.00;;;;;;;21.83;53.52;101034.44;4989723;28;20126;-77
2023/09/08 04:12:51;;;;;;;9.90;3.88;;;;;;;21.83;53.59;101048.13;4989862;28;20118;-77
2023/09/08 04:15:17;;;;;;;22.45;6.85;;;;;;;21.82;53.70;101040.94;4990024;28;20026;-78
2023/09/08 04:17:42;;;;;;;23.30;4.75;;;;;;;21.85;53.87;101046.91;4939107;28;20085;-76
2023/09/08 04:20:08;;;;;;;11.00;4.18;;;;;;;21.89;53.89;101033.72;4989762;28;20046;-76
2023/09/08 04:22:34;;;;;;;21.83;5.03;;;;;;;21.96;53.75;101040.13;4989635;28;20037;-76
2023/09/08 04:25:01;;;;;;;12.55;5.20;;;;;;;21.89;53.85;101028.25;4989898;28;20064;-76
2023/09/08 04:27:26;;;;;;;9.57;4.72;;;;;;;22.00;53.87;101038.72;4989260;28;20426;-77
2023/09/08 04:29:52;;;;;;;28.33;5.60;;;;;;;22.05;53.80;101049.94;4989728;28;20022;-77
2023/09/08 04:32:17;;;;;;;23.45;7.05;;;;;;;22.04;53.92;101049.13;4939410;28;20049;-76
2023/09/08 04:34:44;;;;;;;12.85;4.68;;;;;;;22.13;54.01;101055.34;4989841;28;20028;-77
2023/09/08 04:37:09;;;;;;;26.55;5.95;;;;;;;22.13;54.20;101047.13;4989703;28;20138;-76
2023/09/08 04:39:36;;;;;;;43.95;6.80;;;;;;;22.13;54.44;101042.50;4989379;28;20106;-77
2023/09/08 04:42:03;;;;;;;30.50;7.00;;;;;;;22.27;54.51;101065.44;4989818;28;20026;-77
2023/09/08 04:44:28;;;;;;;13.90;5.15;;;;;;;22.30;54.73;101055.97;4989752;28;20034;-78
2023/09/08 04:46:54;;;;;;;21.63;4.03;;;;;;;22.32;54.72;101060.25;4989697;28;20448;-78
2023/09/08 04:49:20;;;;;;;299.58;27.77;;;;;;;22.20;54.97;101034.34;4989605;28;20030;-81
2023/09/08 04:51:45;;;;;;;9.18;4.07;;;;;;;22.36;55.32;101058.81;4989762;28;20093;-81
2023/09/08 04:54:11;;;;;;;23.98;6.30;;;;;;;22.27;55.23;101035.28;4971681;28;20420;-77
2023/09/08 04:56:36;;;;;;;33.05;7.32;;;;;;;22.32;55.46;101030.13;4989486;28;20085;-77
2023/09/08 04:59:02;;;;;;;13.18;4.57;;;;;;;22.39;55.97;101038.38;4989401;28;20041;-77
2023/09/08 05:01:29;;;;;;;36.22;6.55;;;;;;;22.53;56.54;101056.72;4989011;28;20037;-76
2023/09/08 05:03:55;;;;;;;18.45;5.35;;;;;;;22.63;56.47;101066.34;4990031;28;20042;-83
2023/09/08 05:06:20;;;;;;;22.80;5.90;;;;;;;22.66;57.15;101065.97;4990108;28;20029;-81
2023/09/08 05:08:46;;;;;;;13.88;6.13;;;;;;;22.73;57.26;101055.09;4989905;28;20030;-79
2023/09/08 05:11:11;;;;;;;21.23;6.10;;;;;;;22.72;57.77;101059.72;4972367;28;20022;-78
2023/09/08 05:13:37;;;;;;;18.48;5.28;;;;;;;22.64;58.54;101051.59;4990473;28;20030;-84
2023/09/08 05:16:11;;;;;;;39.50;9.63;;;;;;;22.74;58.57;101054.91;4990118;28;20018;-82
2023/09/08 05:18:40;;;;;;;14.35;5.07;;;;;;;22.84;59.08;101057.34;4989673;28;20073;-85
2023/09/08 05:21:06;;;;;;;42.10;5.80;;;;;;;22.88;60.01;101052.28;4971844;28;20111;-79
2023/09/08 05:23:31;;;;;;;7.53;4.57;;;;;;;23.03;60.47;101051.19;4990268;28;20105;-79
2023/09/08 05:25:57;;;;;;;19.50;5.82;;;;;;;23.11;60.68;101051.09;4989094;28;20531;-78
2023/09/08 05:28:22;;;;;;;13.57;4.65;;;;;;;23.19;60.85;101061.94;4989266;28;20117;-78
2023/09/08 05:30:50;;;;;;;17.58;4.53;;;;;;;23.26;61.08;101056.50;4989404;28;20100;-80
2023/09/08 05:33:16;;;;;;;14.90;5.30;;;;;;;23.36;61.86;101057.03;4970397;28;20446;-78
2023/09/08 05:35:42;;;;;;;18.27;6.72;;;;;;;23.44;61.62;101051.41;4989409;28;20019;-78
2023/09/08 05:38:07;;;;;;;26.40;6.80;;;;;;;23.60;61.97;101059.38;4972322;28;20034;-77
2023/09/08 05:40:34;;;;;;;25.92;7.97;;;;;;;23.61;62.31;101040.97;4992962;28;20049;-77
2023/09/08 05:43:00;;;;;;;23.67;7.03;;;;;;;23.76;62.96;101041.72;4993093;28;20026;-79
2023/09/08 05:45:25;;;;;;;15.32;6.03;;;;;;;23.95;62.69;101060.25;4992944;28;20077;-78
2023/09/08 05:47:52;;;;;;;24.48;5.45;;;;;;;24.10;62.88;101065.63;4992872;28;20117;-78
2023/09/08 05:50:17;;;;;;;25.27;6.68;;;;;;;24.19;62.73;101064.44;4993009;28;20398;-78
2023/09/08 05:52:43;;;;;;;29.95;7.60;;;;;;;24.27;62.51;101067.06;4992893;28;20041;-78
2023/09/08 05:55:09;;;;;;;17.67;5.22;;;;;;;24.35;62.30;101075.97;4993007;28;20098;-78
2023/09/08 05:57:34;;;;;;;13.90;5.50;;;;;;;24.38;62.54;101069.22;4992984;28;20019;-78
2023/09/08 06:00:00;;;;;;;26.13;7.70;;;;;;;24.48;62.56;101077.94;4992807;28;20121;-79
2023/09/08 06:02:26;;;;;;;16.77;5.47;;;;;;;24.60;63.51;101073.56;4992976;28;20027;-80
2023/09/08 06:04:51;;;;;;;27.45;6.68;;;;;;;24.72;63.94;101077.41;4993067;28;20030;-78
2023/09/08 06:07:17;;;;;;;35.03;8.27;;;;;;;24.81;64.01;101076.19;4992576;28;20101;-78
2023/09/08 06:09:42;;;;;;;29.55;6.80;;;;;;;24.99;65.70;101077.50;4992237;28;20030;-78
2023/09/08 06:12:08;;;;;;;26.90;6.43;;;;;;;25.04;65.88;101081.38;4992310;28;20034;-78
2023/09/08 06:14:33;;;;;;;31.38;6.85;;;;;;;25.15;66.36;101071.63;4992459;28;20023;-79
2023/09/08 06:16:58;;;;;;;20.33;5.68;;;;;;;25.26;66.58;101079.25;4993025;28;20062;-78
2023/09/08 06:19:24;;;;;;;19.13;7.55;;;;;;;25.36;66.58;101085.22;4992089;28;20151;-78
2023/09/08 06:21:49;;;;;;;26.80;7.28;;;;;;;25.44;66.50;101087.78;4974836;28;20029;-79
2023/09/08 06:24:15;;;;;;;20.52;7.30;;;;;;;25.53;66.67;101091.22;4992047;28;20088;-79
2023/09/08 06:26:41;;;;;;;25.67;7.95;;;;;;;25.55;66.79;101081.66;4992098;28;20030;-78
2023/09/08 06:29:07;;;;;;;18.83;6.60;;;;;;;25.68;66.76;101094.59;4992206;28;20030;-78
2023/09/08 06:31:32;;;;;;;19.63;5.78;;;;;;;25.76;66.54;101088.88;4991949;28;20028;-78
2023/09/08 06:33:58;;;;;;;12.32;6.35;;;;;;;25.84;66.49;101083.97;4992549;28;20030;-78
2023/09/08 06:36:23;;;;;;;22.25;5.80;;;;;;;25.94;66.30;101084.41;4991602;28;20026;-79
2023/09/08 06:38:49;;;;;;;34.85;8.18;;;;;;;26.05;66.16;101082.91;4992140;28;20018;-78
2023/09/08 06:41:14;;;;;;;25.38;6.65;;;;;;;26.23;65.76;101085.03;4991994;28;20050;-79
2023/09/08 06:43:40;;;;;;;42.03;9.95;;;;;;;26.36;65.02;101093.28;4991895;28;20489;-79
2023/09/08 06:46:05;;;;;;;15.43;6.82;;;;;;;26.45;64.61;101090.03;4992186;28;20050;-79
2023/09/08 06:48:31;;;;;;;30.10;9.50;;;;;;;26.55;64.62;101091.50;4991760;28;20479;-79
2023/09/08 06:50:56;;;;;;;21.30;6.43;;;;;;;26.65;64.21;101084.47;4991400;28;20030;-79
2023/09/08 06:53:23;;;;;;;22.63;7.35;;;;;;;26.78;63.80;101086.31;4991160;28;20197;-79
2023/09/08 06:55:48;;;;;;;24.70;6.70;;;;;;;26.99;63.24;101084.13;4992214;28;20030;-78
2023/09/08 06:58:16;;;;;;;22.27;6.85;;;;;;;27.09;62.54;101060.69;4991960;28;20029;-80
2023/09/08 07:00:42;;;;;;;38.13;7.43;;;;;;;27.37;61.02;101088.75;4992035;28;20033;-79
2023/09/08 07:03:11;;;;;;;26.17;6.57;;;;;;;27.55;59.98;101083.34;4991408;28;20042;-79
2023/09/08 07:05:39;;;;;;;18.33;5.60;;;;;;;27.77;59.69;101075.47;4991943;28;20026;-80
2023/09/08 07:08:06;;;;;;;27.40;6.78;;;;;;;27.94;59.14;101074.69;4991557;28;20495;-80
2023/09/08 07:10:31;;;;;;;25.42;7.43;;;;;;;28.09;58.96;101097.34;4992084;28;20026;-79
2023/09/08 07:12:57;;;;;;;17.55;5.70;;;;;;;27.94;58.19;101088.53;4993180;28;20035;-79
2023/09/08 07:15:22;;;;;;;32.25;9.65;;;;;;;27.87;56.41;101107.09;5009536;28;20090;-79
2023/09/08 07:17:47;;;;;;;28.27;10.85;;;;;;;27.63;54.08;101099.66;5015918;28;20039;-78
2023/09/08 07:20:13;;;;;;;30.20;10.52;;;;;;;27.44;53.54;101120.81;5016319;28;20038;-77
2023/09/08 07:22:38;;;;;;;28.70;9.85;;;;;;;27.26;52.84;101125.38;4997767;28;20030;-79
2023/09/08 07:25:04;;;;;;;16.88;6.70;;;;;;;27.09;52.79;101118.69;4991857;28;20026;-79
2023/09/08 07:27:30;;;;;;;21.80;8.18;;;;;;;26.74;53.21;101102.47;4991324;28;20038;-79
2023/09/08 07:29:55;;;;;;;17.75;7.50;;;;;;;26.63;54.63;101108.69;4992200;28;20050;-78
2023/09/08 07:32:22;;;;;;;26.67;9.27;;;;;;;26.55;55.31;101125.44;4991202;28;20117;-79
2023/09/08 07:34:54;;;;;;;35.30;10.82;;;;;;;26.46;56.14;101124.00;4991750;28;20599;-79
2023/09/08 07:37:22;;;;;;;22.17;8.88;;;;;;;26.21;57.51;101110.03;4990231;28;20032;-78
2023/09/08 07:39:49;;;;;;;23.85;8.55;;;;;;;26.15;59.24;101112.78;4990943;28;20109;-79
2023/09/08 07:42:14;;;;;;;15.75;6.15;;;;;;;26.11;60.07;101123.41;4990856;28;20030;-77
2023/09/08 07:44:40;;;;;;;28.63;8.43;;;;;;;26.07;60.37;101124.03;4989108;28;20033;-79
2023/09/08 07:47:05;;;;;;;24.73;9.35;;;;;;;26.04;60.43;101122.56;4990522;28;20108;-79
2023/09/08 07:49:33;;;;;;;25.95;9.73;;;;;;;25.96;60.79;101131.88;4990230;28;20117;-78
2023/09/08 07:51:59;;;;;;;45.45;11.07;;;;;;;25.92;61.61;101129.78;4990389;28;20030;-78
2023/09/08 07:54:24;;;;;;;14.93;6.82;;;;;;;25.83;62.19;101114.53;4939349;28;20143;-78
2023/09/08 07:56:50;;;;;;;20.60;7.15;;;;;;;25.56;63.23;101096.28;4990485;28;20422;-78
2023/09/08 07:59:15;;;;;;;31.67;9.50;;;;;;;25.65;64.08;101125.34;4990071;28;20030;-79
2023/09/08 08:01:41;;;;;;;22.55;7.28;;;;;;;25.56;65.49;101121.09;4989577;28;20131;-79
2023/09/08 08:04:06;;;;;;;22.55;7.35;;;;;;;25.58;66.58;101121.72;4990462;28;20037;-79
2023/09/08 08:06:31;;;;;;;20.17;6.55;;;;;;;25.64;67.08;101138.25;4990435;28;20026;-79
2023/09/08 08:08:57;;;;;;;17.55;7.03;;;;;;;25.65;67.35;101133.59;4990465;28;20042;-77
2023/09/08 08:11:23;;;;;;;43.95;11.18;;;;;;;25.60;66.71;101136.13;4989980;28;20113;-78
2023/09/08 08:13:48;;;;;;;34.42;9.70;;;;;;;25.57;67.21;101131.88;4989554;28;20030;-79
2023/09/08 08:16:14;;;;;;;35.38;9.68;;;;;;;25.42;65.76;101100.91;4990129;28;20546;-80
2023/09/08 08:18:39;;;;;;;28.52;8.70;;;;;;;25.57;65.87;101148.41;4989964;28;20093;-79
2023/09/08 08:21:05;;;;;;;24.40;7.70;;;;;;;25.44;66.32;101132.69;4990226;28;20061;-78
2023/09/08 08:23:31;;;;;;;26.88;8.00;;;;;;;25.42;66.78;101137.56;4976242;28;20031;-78
2023/09/08 08:25:57;;;;;;;53.55;12.07;;;;;;;25.38;67.17;101132.69;4987466;28;20042;-81
2023/09/08 08:28:24;;;;;;;19.25;8.63;;;;;;;25.36;67.26;101143.91;4990477;28;20029;-78
2023/09/08 08:30:49;;;;;;;39.05;9.35;;;;;;;25.16;67.34;101125.66;4989379;28;20098;-78
2023/09/08 08:33:15;;;;;;;52.78;11.20;;;;;;;25.23;67.49;101141.09;4990083;28;20114;-79
2023/09/08 08:35:40;;;;;;;18.33;6.63;;;;;;;25.29;67.38;101150.44;4990298;28;20472;-78
2023/09/08 08:38:06;;;;;;;26.45;7.50;;;;;;;25.24;67.52;101144.72;4990191;28;20431;-77
2023/09/08 08:40:33;;;;;;;29.40;9.10;;;;;;;25.25;67.64;101139.03;4987029;28;20030;-77
2023/09/08 08:43:00;;;;;;;25.23;8.45;;;;;;;25.31;67.90;101137.34;4991109;28;20398;-78
2023/09/08 08:45:26;;;;;;;31.67;8.18;;;;;;;25.37;67.64;101142.00;4997271;28;20054;-79
2023/09/08 08:47:52;;;;;;;56.33;8.73;;;;;;;25.42;67.73;101151.34;4989524;28;20033;-79
2023/09/08 08:50:20;;;;;;;24.73;7.30;;;;;;;25.48;67.30;101148.78;4989473;28;20026;-80
2023/09/08 08:52:46;;;;;;;29.85;9.25;;;;;;;25.49;67.32;101143.13;4948849;28;20041;-81
2023/09/08 08:55:14;;;;;;;32.13;8.43;;;;;;;25.47;67.55;101144.34;4989762;28;20026;-78
2023/09/08 08:57:40;;;;;;;28.27;6.95;;;;;;;25.49;66.95;101145.88;4983423;28;20038;-79
2023/09/08 09:00:11;;;;;;;24.73;7.70;;;;;;;25.45;66.82;101141.78;4999895;28;20414;-79
2023/09/08 09:02:42;;;;;;;41.47;8.55;;;;;;;25.52;67.04;101145.44;4974465;28;20029;-79
2023/09/08 09:05:12;;;;;;;43.08;8.45;;;;;;;25.59;66.95;101143.56;4989562;28;20022;-78
2023/09/08 09:07:39;;;;;;;28.40;7.65;;;;;;;25.57;66.88;101126.38;4989766;28;20391;-78
2023/09/08 09:10:07;;;;;;;21.02;7.28;;;;;;;25.73;66.84;101137.00;4989461;28;20037;-79
2023/09/08 09:12:33;;;;;;;58.72;9.88;;;;;;;25.79;66.99;101141.66;4972795;28;20113;-79
2023/09/08 09:14:59;;;;;;;29.98;8.00;;;;;;;25.77;66.72;101110.72;4993666;28;20491;-79
2023/09/08 09:17:25;;;;;;;17.80;6.45;;;;;;;26.04;66.01;101138.25;4976236;28;20034;-80
2023/09/08 09:19:51;;;;;;;39.13;8.68;;;;;;;26.04;66.19;101122.56;4994089;28;20026;-80
2023/09/08 09:22:21;;;;;;;19.75;6.78;;;;;;;26.23;64.93;101137.44;4992123;28;20032;-82
2023/09/08 09:24:47;;;;;;;57.47;14.75;;;;;;;26.48;64.78;101141.19;4993475;28;20037;-79
2023/09/08 09:27:13;;;;;;;32.03;6.90;;;;;;;26.66;63.64;101132.22;4993129;28;20524;-79
2023/09/08 09:29:46;;;;;;;24.42;6.70;;;;;;;26.75;59.12;101117.97;4993683;28;20061;-78
2023/09/08 09:32:12;;;;;;;14.38;6.03;;;;;;;26.68;57.03;101102.47;4989007;28;20128;-78
2023/09/08 09:34:50;;;;;;;15.43;4.72;;;;;;;26.94;56.32;101135.56;4992885;28;20477;-79
2023/09/08 09:37:16;;;;;;;14.07;5.50;;;;;;;27.06;55.35;101130.19;4989356;28;20061;-81
2023/09/08 09:39:42;;;;;;;26.42;5.95;;;;;;;27.18;54.07;101120.97;4993171;28;20390;-77
2023/09/08 09:42:07;;;;;;;21.77;7.70;;;;;;;27.22;53.68;101121.34;4992968;28;20022;-78
2023/09/08 09:44:33;;;;;;;23.80;5.72;;;;;;;27.35;54.10;101110.22;4993551;28;20455;-78
2023/09/08 09:47:00;;;;;;;20.17;4.93;;;;;;;27.42;52.69;101086.16;4993366;28;20429;-78
2023/09/08 09:49:31;;;;;;;17.13;4.40;;;;;;;27.75;52.33;101111.66;4991891;28;20121;-79
2023/09/08 09:51:58;;;;;;;22.58;5.32;;;;;;;28.13;51.43;101100.50;4993305;28;20418;-78
2023/09/08 09:54:23;;;;;;;14.95;5.53;;;;;;;28.09;49.82;101100.09;4993130;28;20050;-79
2023/09/08 09:56:51;;;;;;;16.08;4.43;;;;;;;27.69;49.33;101057.28;4974822;28;20069;-78
2023/09/08 09:59:17;;;;;;;13.98;4.47;;;;;;;28.24;49.72;101098.88;4973985;28;20066;-80
2023/09/08 10:01:43;;;;;;;46.25;6.82;;;;;;;28.43;49.30;101098.69;4985611;28;20077;-81
2023/09/08 10:04:10;;;;;;;21.45;4.70;;;;;;;28.61;48.99;101087.59;4993415;28;20113;-81
2023/09/08 10:06:37;;;;;;;19.48;5.03;;;;;;;28.64;48.65;101077.97;4993469;28;20061;-82
2023/09/08 10:09:04;;;;;;;32.97;5.10;;;;;;;28.68;49.08;101100.56;4992874;28;20476;-83
2023/09/08 10:11:41;;;;;;;33.80;4.80;;;;;;;28.84;49.24;101095.19;4992958;28;20038;-83
2023/09/08 10:14:28;;;;;;;18.02;4.32;;;;;;;28.81;48.81;101101.22;4921488;29;20465;-82
2023/09/08 10:16:59;;;;;;;16.02;5.03;;;;;;;28.94;48.53;101094.66;4915236;29;20051;-80
2023/09/08 10:19:25;;;;;;;23.23;5.70;;;;;;;28.92;48.45;101069.97;4913622;29;20048;-82
2023/09/08 10:21:54;;;;;;;37.88;6.53;;;;;;;29.23;47.89;101084.66;4913478;29;20040;-78
2023/09/08 10:24:26;;;;;;;13.52;4.28;;;;;;;29.05;47.09;101086.38;4912612;29;20056;-81
2023/09/08 10:27:12;;;;;;;9.38;3.78;;;;;;;28.96;47.01;101100.81;4913028;29;20044;-81
2023/09/08 10:29:38;;;;;;;7.45;3.65;;;;;;;28.90;47.49;101094.28;4912666;29;20039;-81
2023/09/08 10:32:06;;;;;;;10.88;4.47;;;;;;;28.99;47.22;101103.94;4913207;29;20107;-81
2023/09/08 10:34:33;;;;;;;14.20;3.72;;;;;;;28.90;47.28;101077.66;4913755;29;20040;-83
2023/09/08 10:36:59;;;;;;;16.98;4.93;;;;;;;29.07;47.70;101097.25;4913264;29;20466;-82
2023/09/08 10:39:29;;;;;;;13.07;4.57;;;;;;;29.16;48.40;101098.59;4896913;29;20092;-81
2023/09/08 10:42:16;;;;;;;22.80;5.30;;;;;;;29.26;49.59;101100.84;4912923;29;20417;-80
2023/09/08 10:44:43;;;;;;;15.93;4.53;;;;;;;29.20;48.69;101110.06;4913191;29;20130;-78
2023/09/08 10:47:09;;;;;;;16.35;4.70;;;;;;;28.96;48.64;101107.19;4912190;29;20072;-79
2023/09/08 10:49:36;;;;;;;11.07;3.63;;;;;;;28.60;47.58;101101.66;4912645;29;20042;-79
2023/09/08 10:52:08;;;;;;;9.63;3.65;;;;;;;28.54;47.49;101108.13;4967438;28;20109;-81
2023/09/08 10:54:44;;;;;;;15.60;4.30;;;;;;;28.26;48.01;101071.81;4992137;28;20054;-82
2023/09/08 10:57:17;;;;;;;13.63;3.63;;;;;;;28.34;48.13;101104.75;4991720;28;20034;-81
2023/09/08 10:59:54;;;;;;;11.15;4.15;;;;;;;28.29;47.96;101086.06;4991943;28;20030;-79
2023/09/08 11:02:54;;;;;;;13.52;4.10;;;;;;;28.43;47.94;101097.84;4992023;28;20034;-80
2023/09/08 11:05:21;;;;;;;12.05;3.88;;;;;;;28.39;46.77;101091.91;4974618;28;20070;-82
2023/09/08 11:07:53;;;;;;;17.20;4.18;;;;;;;28.60;46.84;101088.66;4991900;28;20604;-82
2023/09/08 11:10:18;;;;;;;;;;;;;;;28.70;46.38;101102.00;4992946;28;20109;-82
2023/09/08 11:12:43;;;;;;;14.00;5.00;;;;;;;28.73;46.34;101087.69;4991720;28;20426;-81
2023/09/08 11:15:09;;;;;;;36.97;7.00;;;;;;;28.83;45.66;101088.00;4991541;28;20034;-80
2023/09/08 11:17:39;;;;;;;25.67;5.22;;;;;;;28.92;45.10;101083.81;4991539;28;20149;-81